Time;durP1;ratioP1;P1;durP2;ratioP2;P2;SDS_P1;SDS_P2;PMS_P1;PMS_P2;Temp;Humidity;BMP_temperature;BMP_pressure;BME280_temperature;BME280_humidity;BME280_pressure;Samples;Min_cycle;Max_cycle;Signal;HPM_P1;HPM_P2
2021/12/07 00:01:31;;;;;;;8.80;3.10;;;0.90;96.40;;;;;;5063601;28;20197;-65
2021/12/07 00:03:59;;;;;;;14.57;5.53;;;0.80;96.40;;;;;;5068502;28;20201;-65
2021/12/07 00:06:26;;;;;;;12.87;4.67;;;0.80;96.50;;;;;;5068637;28;20249;-65
2021/12/07 00:08:56;;;;;;;9.90;4.17;;;0.80;96.50;;;;;;5055637;28;20224;-65
2021/12/07 00:11:25;;;;;;;11.53;4.47;;;0.70;96.50;;;;;;5066015;28;20201;-64
2021/12/07 00:13:53;;;;;;;8.13;3.77;;;1.50;97.00;;;;;;5058775;28;20192;-64
2021/12/07 00:16:20;;;;;;;8.70;3.97;;;0.60;96.70;;;;;;5056461;28;20850;-65
2021/12/07 00:18:48;;;;;;;7.70;4.37;;;0.50;96.80;;;;;;5053005;28;20193;-65
2021/12/07 00:21:17;;;;;;;10.50;4.07;;;0.50;96.80;;;;;;5058354;28;20193;-65
2021/12/07 00:23:45;;;;;;;7.07;4.10;;;0.50;96.90;;;;;;5052403;28;20662;-65
2021/12/07 00:26:15;;;;;;;11.03;5.37;;;0.50;96.90;;;;;;5053913;28;20259;-65
2021/12/07 00:28:43;;;;;;;10.13;4.80;;;0.50;97.10;;;;;;5052600;28;20622;-65
2021/12/07 00:31:16;;;;;;;7.03;3.90;;;0.60;97.40;;;;;;5054897;28;20218;-65
2021/12/07 00:33:50;;;;;;;9.03;4.20;;;0.50;97.10;;;;;;5054103;28;20280;-65
2021/12/07 00:36:17;;;;;;;6.80;3.60;;;0.50;97.10;;;;;;5057980;28;20219;-65
2021/12/07 00:38:44;;;;;;;6.73;3.33;;;0.50;97.10;;;;;;5054289;28;20344;-65
2021/12/07 00:41:14;;;;;;;4.73;3.10;;;0.50;97.20;;;;;;5065502;28;20201;-65
2021/12/07 00:43:41;;;;;;;7.00;4.27;;;0.50;97.10;;;;;;5043077;28;20304;-65
2021/12/07 00:46:11;;;;;;;8.20;4.70;;;0.50;97.20;;;;;;5060316;28;20255;-65
2021/12/07 00:48:38;;;;;;;8.43;4.63;;;0.60;97.00;;;;;;5055322;28;20198;-65
2021/12/07 00:51:06;;;;;;;6.93;4.40;;;0.60;96.90;;;;;;5059883;28;20777;-65
2021/12/07 00:53:34;;;;;;;7.10;3.97;;;0.60;97.00;;;;;;5036092;28;20297;-63
2021/12/07 00:56:03;;;;;;;5.50;3.13;;;0.60;97.30;;;;;;5061465;28;20628;-65
2021/12/07 00:58:33;;;;;;;4.17;3.20;;;0.60;97.00;;;;;;5062963;28;20234;-64
2021/12/07 01:01:10;;;;;;;5.13;3.20;;;0.60;97.00;;;;;;5066114;28;20201;-64
2021/12/07 01:03:41;;;;;;;7.57;4.53;;;0.50;97.00;;;;;;5040306;28;20214;-64
2021/12/07 01:06:19;;;;;;;7.73;4.53;;;0.50;97.00;;;;;;5064741;28;20318;-65
2021/12/07 01:09:06;;;;;;;7.77;4.70;;;0.50;97.00;;;;;;5069191;28;20189;-64
2021/12/07 01:25:29;;;;;;;5.17;3.20;;;0.20;97.70;;;;;;5036896;28;20217;-64
2021/12/07 01:28:01;;;;;;;5.47;3.40;;;0.20;97.50;;;;;;5064689;28;20266;-64
2021/12/07 01:30:38;;;;;;;5.03;3.00;;;0.20;97.60;;;;;;5040278;28;20228;-64
2021/12/07 01:33:23;;;;;;;7.43;4.30;;;0.20;97.50;;;;;;5056774;28;20201;-65
2021/12/07 01:36:09;;;;;;;7.60;4.03;;;0.30;97.40;;;;;;5059095;28;20209;-65
2021/12/07 01:42:44;;;;;;;2.90;2.53;;;0.40;97.20;;;;;;5046726;28;20197;-65
2021/12/07 01:44:34;;;;;;;4.57;2.90;;;0.40;97.20;;;;;;5068042;28;20316;-65
2021/12/07 01:47:24;;;;;;;5.07;3.00;;;0.30;96.80;;;;;;5038808;28;20203;-65
2021/12/07 01:53:02;;;;;;;3.97;2.50;;;0.10;97.00;;;;;;5056360;28;20551;-64
2021/12/07 02:01:00;;;;;;;5.57;2.57;;;0.20;97.20;;;;;;5059076;28;20194;-64
2021/12/07 02:03:29;;;;;;;4.80;3.50;;;0.20;97.10;;;;;;5053874;28;20205;-64
2021/12/07 02:05:56;;;;;;;6.07;3.60;;;0.30;96.80;;;;;;5070455;28;20561;-64
2021/12/07 02:08:24;;;;;;;3.67;2.73;;;0.30;96.60;;;;;;5051441;28;20367;-64
2021/12/07 02:10:56;;;;;;;4.13;2.83;;;0.30;96.60;;;;;;5046504;28;20210;-64
2021/12/07 02:14:05;;;;;;;4.33;2.77;;;0.30;96.60;;;;;;5063798;28;20215;-64
2021/12/07 02:16:15;;;;;;;2.30;2.10;;;0.30;96.60;;;;;;5040658;28;20216;-64
2021/12/07 02:18:45;;;;;;;4.00;2.30;;;0.20;96.60;;;;;;5050813;28;20546;-65
2021/12/07 02:21:22;;;;;;;4.20;3.13;;;0.10;96.60;;;;;;5059290;28;20626;-64
2021/12/07 02:23:55;;;;;;;3.43;2.53;;;0.10;96.60;;;;;;5052438;28;20299;-64
2021/12/07 02:26:22;;;;;;;2.73;2.20;;;0.10;96.50;;;;;;5052588;28;20209;-64
2021/12/07 02:28:52;;;;;;;3.53;2.30;;;0.20;96.60;;;;;;5052361;28;20256;-63
2021/12/07 02:31:21;;;;;;;2.80;2.23;;;0.20;96.50;;;;;;5052636;28;20208;-65
2021/12/07 02:33:49;;;;;;;2.63;2.07;;;0.20;96.30;;;;;;5053286;28;20236;-64
2021/12/07 02:36:18;;;;;;;1.87;1.60;;;0.20;96.40;;;;;;5042104;28;20690;-64
2021/12/07 02:38:46;;;;;;;1.63;1.50;;;0.20;96.40;;;;;;5052876;28;20259;-64
2021/12/07 02:41:14;;;;;;;2.83;2.00;;;0.20;96.40;;;;;;5057689;28;20209;-64
2021/12/07 02:43:42;;;;;;;2.80;1.90;;;0.30;96.30;;;;;;5043382;28;20304;-64
2021/12/07 02:46:10;;;;;;;3.53;2.27;;;0.30;96.10;;;;;;5041625;28;20252;-64
2021/12/07 02:48:37;;;;;;;3.67;2.40;;;0.40;96.20;;;;;;5049759;28;20625;-65
2021/12/07 02:51:05;;;;;;;3.03;2.37;;;0.20;96.00;;;;;;5049534;28;20244;-65
2021/12/07 02:53:36;;;;;;;3.10;2.00;;;0.10;96.00;;;;;;5058430;28;20220;-65
2021/12/07 02:56:05;;;;;;;2.73;2.07;;;0.10;96.10;;;;;;5042733;28;20198;-64
2021/12/07 02:58:36;;;;;;;3.77;2.23;;;0.10;96.00;;;;;;5044908;28;20297;-65
2021/12/07 03:01:11;;;;;;;3.20;2.23;;;0.10;96.10;;;;;;5050832;28;20208;-64
2021/12/07 03:03:49;;;;;;;2.33;2.00;;;0.10;96.00;;;;;;5051659;28;20500;-65
2021/12/07 03:06:22;;;;;;;3.63;2.20;;;0.20;96.00;;;;;;5046903;28;20684;-65
2021/12/07 03:09:31;;;;;;;6.20;2.63;;;0.10;95.90;;;;;;5049357;28;20258;-66
2021/12/07 03:26:01;;;;;;;1.60;1.40;;;0.10;96.00;;;;;;5038872;28;20304;-65
2021/12/07 03:28:31;;;;;;;2.10;1.90;;;0.10;95.90;;;;;;5049966;28;20209;-65
2021/12/07 03:30:58;;;;;;;4.37;1.60;;;0.20;95.80;;;;;;5067387;28;20209;-65
2021/12/07 03:33:27;;;;;;;1.73;1.63;;;0.20;95.70;;;;;;5050365;28;20205;-66
2021/12/07 03:35:54;;;;;;;2.07;1.50;;;0.20;95.70;;;;;;5063306;28;20197;-65
2021/12/07 03:38:25;;;;;;;3.80;2.33;;;0.20;95.70;;;;;;5065952;28;20558;-65
2021/12/07 03:40:54;;;;;;;2.60;1.97;;;0.20;95.70;;;;;;5065841;28;20193;-65
2021/12/07 03:43:22;;;;;;;2.70;2.07;;;0.20;95.60;;;;;;5066652;28;20264;-64
2021/12/07 03:45:49;;;;;;;1.93;1.80;;;0.10;95.50;;;;;;5050462;28;20637;-64
2021/12/07 03:48:21;;;;;;;1.80;1.70;;;0.10;95.50;;;;;;5065999;28;20197;-65
2021/12/07 03:50:48;;;;;;;2.00;1.60;;;0.10;95.50;;;;;;5051084;28;20662;-64
2021/12/07 03:53:17;;;;;;;2.37;2.17;;;0.10;95.60;;;;;;5046853;28;20262;-64
2021/12/07 03:55:44;;;;;;;2.40;1.70;;;0.00;95.40;;;;;;5064004;28;20195;-64
2021/12/07 03:58:13;;;;;;;3.50;1.80;;;-0.10;95.40;;;;;;5047750;28;20236;-65
2021/12/07 04:00:45;;;;;;;3.00;1.87;;;-0.10;95.50;;;;;;5050222;28;20274;-65
2021/12/07 04:03:15;;;;;;;3.47;2.20;;;-0.10;95.60;;;;;;5068994;28;20274;-64
2021/12/07 04:05:47;;;;;;;4.00;2.60;;;-0.10;95.70;;;;;;5050749;28;20540;-65
2021/12/07 04:08:23;;;;;;;4.47;2.73;;;0.00;95.60;;;;;;5049768;28;20214;-65
2021/12/07 04:10:52;;;;;;;3.17;2.47;;;-0.10;95.50;;;;;;5063692;28;20199;-65
2021/12/07 04:13:23;;;;;;;5.30;2.23;;;0.00;95.50;;;;;;5050369;28;20462;-65
2021/12/07 04:15:51;;;;;;;2.53;2.10;;;0.00;95.50;;;;;;5066660;28;20197;-66
2021/12/07 04:18:18;;;;;;;2.93;2.30;;;-0.10;95.40;;;;;;5058525;28;20229;-65
2021/12/07 04:20:46;;;;;;;3.53;2.40;;;1.10;96.00;;;;;;5037134;28;20234;-65
2021/12/07 04:23:13;;;;;;;5.20;2.90;;;-0.30;95.50;;;;;;5043400;28;20204;-65
2021/12/07 04:25:41;;;;;;;3.47;2.67;;;-0.40;95.60;;;;;;5067794;28;20604;-65
2021/12/07 04:28:08;;;;;;;3.13;2.40;;;-0.40;95.60;;;;;;5060105;28;20213;-65
2021/12/07 04:30:39;;;;;;;3.20;2.30;;;-0.30;95.70;;;;;;5068034;28;20236;-64
2021/12/07 04:33:09;;;;;;;3.27;2.00;;;-0.30;95.70;;;;;;5069243;28;20222;-64
2021/12/07 04:35:39;;;;;;;2.80;2.00;;;-0.20;95.70;;;;;;5064607;28;20557;-65
2021/12/07 04:38:06;;;;;;;2.47;1.93;;;-0.30;95.60;;;;;;5063220;28;20870;-64
2021/12/07 04:40:34;;;;;;;1.57;1.47;;;-0.20;95.40;;;;;;5060775;28;20225;-66
2021/12/07 04:43:03;;;;;;;3.80;2.03;;;-0.30;95.40;;;;;;5053896;28;20213;-64
2021/12/07 04:45:37;;;;;;;3.47;2.93;;;-0.40;95.40;;;;;;5061405;28;20198;-65
2021/12/07 04:48:33;;;;;;;6.23;3.20;;;-0.10;95.50;;;;;;5070381;28;20630;-65
2021/12/07 04:59:17;;;;;;;3.13;2.20;;;-0.30;95.20;;;;;;5045791;28;20188;-64
2021/12/07 05:01:48;;;;;;;3.87;2.30;;;-0.30;95.20;;;;;;5069353;28;20613;-65
2021/12/07 05:04:21;;;;;;;2.70;1.87;;;-0.30;95.40;;;;;;5058649;28;20193;-64
2021/12/07 05:06:51;;;;;;;3.33;2.40;;;-0.30;95.00;;;;;;5059730;28;20576;-65
2021/12/07 05:09:51;;;;;;;2.63;2.13;;;-0.30;94.90;;;;;;5057581;28;20364;-65
2021/12/07 05:12:32;;;;;;;2.03;1.63;;;-0.40;94.80;;;;;;5059499;28;20209;-65
2021/12/07 05:15:06;;;;;;;3.53;2.27;;;-0.40;94.80;;;;;;5072389;28;20203;-65
2021/12/07 05:17:59;;;;;;;3.73;1.90;;;-0.40;94.70;;;;;;5057559;28;20228;-65
2021/12/07 05:34:51;;;;;;;6.10;2.87;;;-0.60;94.70;;;;;;5063071;28;20526;-65
2021/12/07 05:40:12;;;;;;;4.27;2.27;;;-0.60;94.70;;;;;;5051825;28;20223;-65
2021/12/07 05:42:41;;;;;;;7.80;2.73;;;-0.70;94.70;;;;;;5055756;28;20281;-65
2021/12/07 05:45:11;;;;;;;1.67;1.57;;;-0.90;94.60;;;;;;5053356;28;20212;-64
2021/12/07 05:47:38;;;;;;;3.20;1.70;;;-1.00;94.80;;;;;;5062475;28;20211;-65
2021/12/07 05:50:08;;;;;;;2.77;1.93;;;-1.00;95.00;;;;;;5055692;28;20194;-65
2021/12/07 05:52:37;;;;;;;2.57;2.13;;;-1.00;95.00;;;;;;5059250;28;20209;-65
2021/12/07 05:55:05;;;;;;;2.70;2.20;;;-1.10;95.00;;;;;;5067704;28;20197;-65
2021/12/07 05:57:32;;;;;;;3.60;2.20;;;-1.20;95.10;;;;;;5066783;28;20208;-65
2021/12/07 06:00:00;;;;;;;2.20;1.57;;;-1.20;95.20;;;;;;5068800;28;20192;-65
2021/12/07 06:02:27;;;;;;;2.87;2.10;;;-1.30;95.20;;;;;;5066790;28;20197;-66
2021/12/07 06:04:54;;;;;;;3.57;1.70;;;-1.10;95.40;;;;;;5063366;28;20202;-65
2021/12/07 06:07:22;;;;;;;4.97;2.00;;;-1.50;95.30;;;;;;5033244;28;20270;-66
2021/12/07 06:09:50;;;;;;;5.90;2.43;;;-1.50;95.40;;;;;;5060807;28;20204;-64
2021/12/07 06:12:17;;;;;;;2.37;1.77;;;-1.50;95.50;;;;;;5056285;28;20258;-65
2021/12/07 06:14:44;;;;;;;3.43;2.67;;;-1.40;95.60;;;;;;5053001;28;20200;-65
2021/12/07 06:17:13;;;;;;;2.17;1.97;;;-1.50;95.60;;;;;;5056486;28;20511;-65
2021/12/07 06:19:40;;;;;;;3.10;2.10;;;-1.50;95.50;;;;;;5062026;28;20335;-64
2021/12/07 06:22:09;;;;;;;2.10;1.70;;;-1.50;95.40;;;;;;5055379;28;20222;-64
2021/12/07 06:24:36;;;;;;;2.17;1.70;;;-1.60;95.40;;;;;;5034375;28;20233;-65
2021/12/07 06:27:05;;;;;;;2.57;1.90;;;-1.60;95.50;;;;;;5057227;28;20536;-65
2021/12/07 06:29:32;;;;;;;3.67;2.10;;;-1.60;95.50;;;;;;5047680;28;20392;-64
2021/12/07 06:31:59;;;;;;;3.57;2.20;;;-1.60;95.50;;;;;;5029871;28;20242;-64
2021/12/07 06:34:26;;;;;;;3.00;1.97;;;-1.60;95.40;;;;;;5030733;28;20240;-65
2021/12/07 06:36:54;;;;;;;3.33;2.40;;;-1.60;95.50;;;;;;5027112;28;20214;-65
2021/12/07 06:39:22;;;;;;;3.80;2.50;;;-1.60;95.40;;;;;;5029726;28;20198;-64
2021/12/07 06:41:49;;;;;;;2.60;1.90;;;-1.70;95.30;;;;;;5027675;28;20236;-65
2021/12/07 06:44:19;;;;;;;2.73;2.07;;;-1.70;95.30;;;;;;5030247;28;20551;-65
2021/12/07 06:46:48;;;;;;;2.63;1.97;;;-1.60;95.30;;;;;;5023234;28;20252;-65
2021/12/07 06:49:15;;;;;;;2.20;1.70;;;-1.40;95.30;;;;;;5034395;28;20211;-65
2021/12/07 06:51:43;;;;;;;1.77;1.47;;;-1.60;95.20;;;;;;5029242;28;20223;-66
2021/12/07 06:54:10;;;;;;;5.07;2.60;;;-1.60;95.10;;;;;;5023370;28;20218;-65
2021/12/07 06:56:38;;;;;;;3.10;1.90;;;-1.60;95.00;;;;;;5026419;28;20209;-64
2021/12/07 06:59:05;;;;;;;3.00;2.30;;;-1.60;94.90;;;;;;5029528;28;20563;-65
2021/12/07 07:01:34;;;;;;;3.37;2.37;;;-1.60;94.90;;;;;;5029287;28;20225;-65
2021/12/07 07:04:02;;;;;;;4.20;2.00;;;-1.60;95.30;;;;;;5015399;28;20191;-65
2021/12/07 07:06:29;;;;;;;3.07;1.83;;;-1.60;94.90;;;;;;5010541;28;20195;-65
2021/12/07 07:08:56;;;;;;;2.53;1.80;;;-1.60;94.90;;;;;;5012210;28;20195;-65
2021/12/07 07:11:24;;;;;;;1.80;1.70;;;-1.60;94.80;;;;;;5010484;28;20195;-65
2021/12/07 07:13:51;;;;;;;6.50;2.80;;;-1.70;94.70;;;;;;5022827;28;20269;-65
2021/12/07 07:16:18;;;;;;;2.23;1.90;;;-1.70;94.60;;;;;;5028525;28;20194;-65
2021/12/07 07:18:49;;;;;;;6.70;2.87;;;-1.80;94.70;;;;;;5017778;28;20603;-65
2021/12/07 07:21:20;;;;;;;4.83;2.77;;;-1.90;94.70;;;;;;5027112;28;20284;-65
2021/12/07 07:23:47;;;;;;;6.20;2.40;;;-1.90;94.70;;;;;;5026859;28;20248;-65
2021/12/07 07:26:17;;;;;;;4.03;2.53;;;-1.90;94.80;;;;;;5028787;28;20644;-64
2021/12/07 07:28:44;;;;;;;6.33;3.20;;;-0.80;95.30;;;;;;5027455;28;20256;-64
2021/12/07 07:31:13;;;;;;;6.33;3.43;;;-2.00;94.70;;;;;;5013583;28;20276;-65
2021/12/07 07:33:40;;;;;;;10.07;3.30;;;-2.00;94.70;;;;;;5022366;28;20686;-64
2021/12/07 07:36:09;;;;;;;4.40;2.70;;;-2.00;94.70;;;;;;5013313;28;20203;-65
2021/12/07 07:38:38;;;;;;;8.63;3.00;;;-2.00;94.80;;;;;;5018650;28;20249;-65
2021/12/07 07:41:06;;;;;;;9.30;2.87;;;-1.90;94.80;;;;;;5014560;28;20687;-65
2021/12/07 07:43:33;;;;;;;5.40;3.03;;;-1.70;94.80;;;;;;5024173;28;20664;-64
2021/12/07 07:46:21;;;;;;;5.03;2.40;;;-2.10;94.60;;;;;;5015502;28;20211;-65
2021/12/07 07:48:48;;;;;;;4.63;2.20;;;-1.80;94.60;;;;;;5021864;28;20241;-65
2021/12/07 07:51:18;;;;;;;6.30;2.93;;;-1.80;94.60;;;;;;5018177;28;20199;-65
2021/12/07 07:53:45;;;;;;;7.47;3.10;;;-1.70;94.60;;;;;;5017690;28;20219;-65
2021/12/07 07:56:12;;;;;;;5.80;2.90;;;-1.70;94.50;;;;;;5022300;28;20841;-64
2021/12/07 07:58:40;;;;;;;8.77;3.17;;;-1.70;94.50;;;;;;5027093;28;20190;-64
2021/12/07 08:01:07;;;;;;;7.20;2.73;;;-1.70;94.40;;;;;;5025928;28;20281;-65
2021/12/07 08:03:35;;;;;;;10.60;3.83;;;-1.60;94.80;;;;;;5028575;28;20202;-65
2021/12/07 08:06:04;;;;;;;8.60;3.57;;;-1.50;94.50;;;;;;5027802;28;20198;-65
2021/12/07 08:08:33;;;;;;;7.23;3.20;;;-1.50;94.40;;;;;;5026009;28;20233;-64
2021/12/07 08:11:01;;;;;;;5.53;3.00;;;-1.40;94.40;;;;;;5026221;28;20264;-65
2021/12/07 08:13:29;;;;;;;7.60;3.00;;;-1.30;94.20;;;;;;5026385;28;20264;-65
2021/12/07 08:15:56;;;;;;;4.67;2.97;;;-1.30;94.10;;;;;;5023598;28;20294;-64
2021/12/07 08:18:24;;;;;;;5.47;3.37;;;-1.30;94.20;;;;;;5025504;28;20198;-66
2021/12/07 08:20:51;;;;;;;6.43;3.20;;;-1.00;94.10;;;;;;5028203;28;20653;-65
2021/12/07 08:23:18;;;;;;;6.97;3.00;;;-1.10;94.10;;;;;;5024819;28;20217;-65
2021/12/07 08:25:49;;;;;;;4.27;2.57;;;-1.30;94.00;;;;;;5023084;28;20198;-65
2021/12/07 08:28:19;;;;;;;3.40;2.07;;;-1.20;94.00;;;;;;5012082;28;20648;-65
2021/12/07 08:30:50;;;;;;;6.30;3.10;;;-1.00;94.10;;;;;;5047827;28;20254;-65
2021/12/07 08:33:18;;;;;;;6.93;3.07;;;-0.90;94.10;;;;;;5058895;28;20213;-65
2021/12/07 08:35:45;;;;;;;6.13;2.80;;;-1.10;94.00;;;;;;5054768;28;20185;-64
2021/12/07 08:38:13;;;;;;;3.33;2.20;;;-1.10;94.00;;;;;;5058642;28;20235;-64
2021/12/07 08:40:41;;;;;;;6.87;2.83;;;-1.00;94.00;;;;;;5056482;28;20624;-64
2021/12/07 08:43:12;;;;;;;7.30;3.10;;;-0.80;94.00;;;;;;5057130;28;20193;-65
2021/12/07 08:45:40;;;;;;;3.90;2.73;;;-0.90;93.90;;;;;;5060831;28;20281;-65
2021/12/07 08:48:08;;;;;;;5.77;2.80;;;-0.70;93.90;;;;;;5063620;28;20531;-64
2021/12/07 08:50:36;;;;;;;5.07;2.80;;;-0.70;93.80;;;;;;5058872;28;20612;-64
2021/12/07 08:53:11;;;;;;;5.23;2.80;;;-0.60;93.80;;;;;;5047986;28;20225;-64
2021/12/07 09:01:14;;;;;;;7.37;3.10;;;-0.60;93.60;;;;;;5056012;28;20291;-64
2021/12/07 09:03:42;;;;;;;7.63;3.33;;;-0.50;93.60;;;;;;5067292;28;20212;-64
2021/12/07 09:06:10;;;;;;;5.37;3.23;;;-0.50;93.60;;;;;;5066155;28;20197;-64
2021/12/07 09:08:39;;;;;;;5.57;2.90;;;-0.50;93.60;;;;;;5067288;28;20279;-64
2021/12/07 09:11:07;;;;;;;4.20;2.50;;;-0.50;93.60;;;;;;5060628;28;20220;-65
2021/12/07 09:13:37;;;;;;;3.27;2.40;;;-0.50;93.70;;;;;;5049807;28;20253;-64
2021/12/07 09:16:05;;;;;;;3.63;2.20;;;-0.40;93.70;;;;;;5055137;28;20189;-65
2021/12/07 09:18:33;;;;;;;8.93;3.33;;;-0.30;93.70;;;;;;5057098;28;20307;-64
2021/12/07 09:21:01;;;;;;;7.87;3.57;;;-0.30;93.70;;;;;;5046120;28;20197;-64
2021/12/07 09:23:28;;;;;;;7.67;3.53;;;-0.30;93.70;;;;;;5053046;28;20205;-65
2021/12/07 09:25:55;;;;;;;8.43;3.57;;;-0.20;93.70;;;;;;5054688;28;20194;-65
2021/12/07 09:28:23;;;;;;;13.97;4.93;;;-0.20;93.80;;;;;;5057670;28;20208;-65
2021/12/07 09:30:52;;;;;;;9.27;3.80;;;-0.10;93.90;;;;;;5055870;28;20257;-64
2021/12/07 09:33:21;;;;;;;10.70;3.77;;;-0.10;93.70;;;;;;5051153;28;20213;-65
2021/12/07 09:35:48;;;;;;;7.77;3.30;;;-0.10;93.80;;;;;;5064969;28;20202;-64
2021/12/07 09:38:16;;;;;;;5.10;2.87;;;0.00;93.80;;;;;;5059084;28;20197;-64
2021/12/07 09:40:44;;;;;;;6.13;2.97;;;0.10;93.90;;;;;;5056257;28;20222;-64
2021/12/07 09:43:12;;;;;;;5.93;2.70;;;0.10;94.00;;;;;;5060033;28;20276;-64
2021/12/07 09:45:41;;;;;;;7.07;3.10;;;0.10;93.80;;;;;;5067466;28;20244;-64
2021/12/07 09:48:11;;;;;;;3.47;2.10;;;0.20;93.90;;;;;;5062407;28;20189;-64
2021/12/07 09:50:40;;;;;;;3.43;2.30;;;0.30;93.90;;;;;;5057406;28;20305;-65
2021/12/07 09:53:11;;;;;;;3.43;2.13;;;0.30;93.80;;;;;;5058173;28;20229;-65
2021/12/07 09:55:40;;;;;;;4.57;2.73;;;0.30;93.90;;;;;;5055198;28;20205;-64
2021/12/07 09:58:08;;;;;;;4.53;2.20;;;0.30;93.90;;;;;;5063739;28;20229;-64
2021/12/07 10:00:37;;;;;;;3.47;2.07;;;0.40;93.90;;;;;;5066732;28;20262;-65
2021/12/07 10:03:05;;;;;;;2.07;1.87;;;0.40;93.90;;;;;;5069133;28;20193;-65
2021/12/07 10:05:36;;;;;;;2.87;2.30;;;0.40;93.90;;;;;;5069675;28;20243;-65
2021/12/07 10:08:05;;;;;;;2.07;1.80;;;0.40;93.90;;;;;;5050718;28;20635;-65
2021/12/07 10:10:36;;;;;;;4.20;1.80;;;0.50;93.90;;;;;;5049366;28;20589;-65
2021/12/07 10:13:04;;;;;;;4.07;2.07;;;0.60;93.90;;;;;;5050335;28;20216;-65
2021/12/07 10:15:32;;;;;;;2.47;1.97;;;0.70;93.80;;;;;;5052216;28;20224;-65
2021/12/07 10:18:04;;;;;;;1.80;1.70;;;0.80;93.70;;;;;;5039147;28;20225;-65
2021/12/07 10:20:40;;;;;;;5.57;2.00;;;0.90;93.70;;;;;;5058923;28;20189;-65
2021/12/07 10:23:27;;;;;;;2.87;2.07;;;1.00;93.50;;;;;;5053303;28;20283;-64
2021/12/07 10:25:57;;;;;;;3.67;2.23;;;1.10;93.40;;;;;;5056611;28;20206;-64
2021/12/07 10:28:28;;;;;;;6.80;1.83;;;1.20;93.30;;;;;;5057870;28;20262;-64
2021/12/07 10:30:55;;;;;;;5.00;2.00;;;1.30;93.10;;;;;;5055266;28;20306;-64
2021/12/07 10:33:30;;;;;;;4.70;2.07;;;1.40;93.00;;;;;;5069688;28;20246;-64
2021/12/07 10:36:10;;;;;;;4.47;2.30;;;1.50;92.80;;;;;;5052780;28;20212;-65
2021/12/07 10:38:38;;;;;;;2.20;1.77;;;1.50;92.70;;;;;;5049904;28;20202;-64
2021/12/07 10:41:07;;;;;;;1.30;1.20;;;1.50;92.60;;;;;;5056481;28;20304;-65
2021/12/07 10:43:47;;;;;;;2.63;1.70;;;1.60;92.60;;;;;;5063423;28;20674;-64
2021/12/07 10:46:40;;;;;;;3.13;1.93;;;1.60;92.50;;;;;;5056599;28;20295;-65
2021/12/07 10:49:22;;;;;;;3.53;2.20;;;1.70;92.20;;;;;;5043467;28;20575;-64
2021/12/07 10:52:09;;;;;;;1.73;1.50;;;1.70;91.70;;;;;;5066539;28;20188;-64
2021/12/07 10:54:38;;;;;;;2.67;1.80;;;1.80;92.00;;;;;;5060503;28;20290;-64
2021/12/07 10:57:08;;;;;;;3.10;1.67;;;1.70;91.90;;;;;;5055232;28;20193;-64
2021/12/07 10:59:36;;;;;;;2.27;1.93;;;1.60;91.50;;;;;;5067324;28;20200;-64
2021/12/07 11:02:16;;;;;;;1.40;1.30;;;1.50;91.40;;;;;;5068952;28;20201;-64
2021/12/07 11:04:45;;;;;;;2.37;1.70;;;1.40;91.40;;;;;;5063666;28;20197;-64
2021/12/07 11:07:17;;;;;;;1.80;1.40;;;1.40;91.40;;;;;;5037181;28;20205;-64
2021/12/07 11:09:51;;;;;;;2.63;1.33;;;1.40;91.40;;;;;;5049839;28;20213;-65
2021/12/07 11:12:20;;;;;;;1.40;1.30;;;1.30;91.30;;;;;;5055816;28;20542;-64
2021/12/07 11:14:51;;;;;;;3.43;1.40;;;1.30;91.30;;;;;;5052138;28;20253;-64
2021/12/07 11:17:22;;;;;;;1.90;1.60;;;1.30;91.30;;;;;;5052573;28;20662;-64
2021/12/07 11:19:49;;;;;;;2.20;1.60;;;1.30;91.10;;;;;;5051578;28;20202;-64
2021/12/07 11:22:21;;;;;;;1.47;1.30;;;1.20;90.90;;;;;;5066631;28;20200;-65
2021/12/07 11:24:48;;;;;;;2.63;1.70;;;1.10;90.90;;;;;;5068531;28;20566;-65
2021/12/07 11:30:09;;;;;;;3.20;1.60;;;0.90;90.90;;;;;;5054824;28;20229;-65
2021/12/07 11:32:36;;;;;;;1.80;1.37;;;0.80;90.80;;;;;;5061760;28;20196;-65
2021/12/07 11:35:20;;;;;;;2.08;1.48;;;0.80;90.80;;;;;;5057171;28;20470;-64
2021/12/07 11:37:50;;;;;;;1.10;1.00;;;0.70;91.00;;;;;;5058646;28;20271;-65
2021/12/07 11:40:25;;;;;;;1.23;1.10;;;0.80;91.00;;;;;;5061742;28;20258;-64
2021/12/07 11:42:53;;;;;;;1.67;1.57;;;0.80;90.80;;;;;;5054850;28;20259;-65
2021/12/07 11:45:25;;;;;;;1.93;1.50;;;0.80;90.50;;;;;;5060788;28;20221;-64
2021/12/07 11:47:54;;;;;;;1.47;1.30;;;0.80;90.40;;;;;;5063646;28;20246;-64
2021/12/07 11:50:27;;;;;;;3.13;1.47;;;0.80;90.20;;;;;;5057783;28;20239;-64
2021/12/07 11:52:59;;;;;;;3.70;1.50;;;0.80;90.20;;;;;;5047635;28;20209;-65
2021/12/07 11:55:26;;;;;;;1.53;1.43;;;0.70;90.00;;;;;;5056874;28;20508;-64
2021/12/07 11:57:54;;;;;;;2.13;1.90;;;0.80;90.00;;;;;;5064755;28;20193;-65
2021/12/07 12:00:25;;;;;;;2.00;1.70;;;0.80;89.50;;;;;;5041365;28;20201;-64
2021/12/07 12:02:52;;;;;;;2.53;1.95;;;0.80;89.30;;;;;;5067880;28;20903;-64
2021/12/07 12:05:20;;;;;;;3.50;2.03;;;0.80;89.30;;;;;;5056532;28;20273;-64
2021/12/07 12:07:48;;;;;;;4.10;2.03;;;0.80;89.50;;;;;;5042739;28;20276;-65
2021/12/07 12:10:19;;;;;;;5.10;3.00;;;0.80;89.10;;;;;;5051507;28;20196;-64
2021/12/07 12:13:07;;;;;;;3.63;2.10;;;0.90;88.10;;;;;;5064791;28;20193;-64
2021/12/07 12:15:57;;;;;;;8.40;2.53;;;0.80;87.70;;;;;;5055504;28;20609;-64
2021/12/07 12:18:36;;;;;;;2.63;1.77;;;0.80;87.90;;;;;;5050537;28;20280;-64
2021/12/07 12:21:16;;;;;;;2.37;1.87;;;0.80;88.10;;;;;;5062984;28;20323;-65
2021/12/07 12:23:53;;;;;;;2.20;1.50;;;0.80;88.50;;;;;;5054035;28;20207;-65
2021/12/07 12:26:26;;;;;;;1.93;1.73;;;0.80;88.50;;;;;;5058085;28;20208;-65
2021/12/07 12:28:55;;;;;;;2.50;2.10;;;0.80;88.60;;;;;;5066332;28;20200;-65
2021/12/07 12:31:52;;;;;;;3.03;1.73;;;0.80;88.70;;;;;;5072199;28;20189;-64
2021/12/07 12:34:22;;;;;;;1.93;1.73;;;0.80;88.80;;;;;;5056307;28;20208;-64
2021/12/07 12:37:03;;;;;;;3.43;2.10;;;0.80;88.80;;;;;;5053027;28;20671;-64
2021/12/07 12:39:52;;;;;;;4.00;2.43;;;0.80;88.60;;;;;;5060136;28;20193;-64
2021/12/07 12:42:29;;;;;;;3.30;2.17;;;0.80;88.50;;;;;;5063611;28;20189;-64
2021/12/07 12:44:59;;;;;;;3.57;2.50;;;0.70;87.90;;;;;;5054445;28;20220;-64
2021/12/07 12:47:28;;;;;;;3.90;2.20;;;0.80;88.20;;;;;;5054644;28;20274;-64
2021/12/07 12:49:56;;;;;;;5.63;2.70;;;0.80;88.40;;;;;;5053714;28;20197;-66
2021/12/07 12:52:41;;;;;;;3.50;2.10;;;0.80;88.30;;;;;;5050153;28;20627;-65
2021/12/07 12:55:31;;;;;;;4.97;2.40;;;0.70;88.40;;;;;;5059841;28;20271;-64
2021/12/07 12:58:00;;;;;;;4.33;2.37;;;0.80;88.60;;;;;;5065912;28;20250;-65
2021/12/07 13:01:04;;;;;;;3.90;2.37;;;0.80;88.30;;;;;;5061411;28;20196;-64
2021/12/07 13:03:57;;;;;;;4.37;2.43;;;0.80;88.10;;;;;;5048430;28;20282;-65
2021/12/07 13:07:05;;;;;;;3.47;2.10;;;0.70;87.60;;;;;;5034970;28;20237;-65
2021/12/07 13:09:40;;;;;;;7.60;2.30;;;0.60;87.50;;;;;;5058792;28;20185;-65
2021/12/07 13:12:11;;;;;;;3.63;2.30;;;0.50;87.10;;;;;;5062391;28;20204;-65
2021/12/07 13:14:53;;;;;;;4.63;2.27;;;0.40;86.90;;;;;;5062116;28;20213;-64
2021/12/07 13:17:25;;;;;;;4.93;2.93;;;0.40;87.00;;;;;;5048358;28;20209;-64
2021/12/07 13:20:24;;;;;;;5.73;2.20;;;0.30;86.60;;;;;;5055122;28;20200;-64
2021/12/07 13:22:55;;;;;;;5.27;2.57;;;0.30;86.50;;;;;;5057129;28;20239;-65
2021/12/07 13:25:26;;;;;;;5.73;2.50;;;0.10;86.30;;;;;;5059935;28;20191;-65
2021/12/07 13:28:25;;;;;;;4.50;2.33;;;0.10;86.50;;;;;;5055582;28;20697;-64
2021/12/07 13:31:04;;;;;;;4.57;2.23;;;-0.10;86.20;;;;;;5064871;28;20667;-64
2021/12/07 13:33:38;;;;;;;5.03;2.30;;;-0.10;85.90;;;;;;5058063;28;20189;-65
2021/12/07 13:36:38;;;;;;;4.67;3.17;;;-0.20;86.00;;;;;;5054708;28;20212;-64
2021/12/07 13:39:45;;;;;;;5.33;2.83;;;-0.30;85.60;;;;;;5054613;28;20392;-65
2021/12/07 13:42:25;;;;;;;7.10;3.30;;;-0.40;85.60;;;;;;5058197;28;20213;-64
2021/12/07 13:45:01;;;;;;;2.90;2.00;;;-0.40;85.50;;;;;;5062233;28;20212;-65
2021/12/07 13:47:32;;;;;;;3.80;2.10;;;-0.50;85.50;;;;;;5055365;28;20621;-65
2021/12/07 13:50:02;;;;;;;3.23;1.97;;;-0.50;85.70;;;;;;5040125;28;20307;-64
2021/12/07 13:52:32;;;;;;;5.20;2.17;;;-0.60;85.40;;;;;;5051438;28;20293;-65
2021/12/07 13:55:06;;;;;;;3.57;2.20;;;-0.60;85.20;;;;;;5056377;28;20202;-65
2021/12/07 13:57:36;;;;;;;3.53;2.00;;;-0.70;85.10;;;;;;5065591;28;20193;-65
2021/12/07 14:00:10;;;;;;;3.50;1.90;;;-0.60;85.20;;;;;;5035086;28;20251;-65
2021/12/07 14:02:45;;;;;;;3.73;2.00;;;-0.70;85.20;;;;;;5065449;28;20910;-64
2021/12/07 14:05:15;;;;;;;3.80;2.20;;;-0.70;85.30;;;;;;5061655;28;20320;-65
2021/12/07 14:07:44;;;;;;;4.13;2.33;;;-0.70;85.70;;;;;;5050114;28;20507;-65
2021/12/07 14:10:15;;;;;;;7.03;2.93;;;-0.70;85.90;;;;;;5058153;28;20259;-65
2021/12/07 14:12:42;;;;;;;4.83;2.37;;;-0.70;85.90;;;;;;5054964;28;20181;-65
2021/12/07 14:15:16;;;;;;;6.17;2.90;;;-0.80;85.80;;;;;;5057794;28;20217;-65
2021/12/07 14:17:48;;;;;;;5.70;2.70;;;-0.90;86.10;;;;;;5055088;28;20589;-66
2021/12/07 14:20:28;;;;;;;4.27;2.60;;;-0.90;86.30;;;;;;5054555;28;20225;-64
2021/12/07 14:22:56;;;;;;;5.17;2.97;;;-0.90;86.50;;;;;;5058518;28;20203;-65
2021/12/07 14:25:23;;;;;;;5.00;2.67;;;-0.90;86.50;;;;;;5065512;28;20193;-65
2021/12/07 14:27:50;;;;;;;5.80;3.07;;;-0.90;86.70;;;;;;5051485;28;20216;-65
2021/12/07 14:30:18;;;;;;;7.67;2.80;;;-0.80;86.90;;;;;;5052475;28;20235;-65